sensor_id;sensor_type;location;lat;lon;timestamp;P1;durP1;ratioP1;P2;durP2;ratioP2
79751;SDS011;69234;47.446;21.636;2024-02-16T00:00:05;63.27;;;61.23;;
79751;SDS011;69234;47.446;21.636;2024-02-16T00:00:41;65.47;;;63.10;;
79751;SDS011;69234;47.446;21.636;2024-02-16T00:01:14;67.03;;;64.57;;
79751;SDS011;69234;47.446;21.636;2024-02-16T00:01:45;66.03;;;63.80;;
79751;SDS011;69234;47.446;21.636;2024-02-16T00:02:16;65.43;;;63.33;;
79751;SDS011;69234;47.446;21.636;2024-02-16T00:02:48;67.43;;;64.90;;
79751;SDS011;69234;47.446;21.636;2024-02-16T00:03:19;67.83;;;64.77;;
79751;SDS011;69234;47.446;21.636;2024-02-16T00:03:50;67.47;;;64.50;;
79751;SDS011;69234;47.446;21.636;2024-02-16T00:04:21;68.80;;;65.80;;
79751;SDS011;69234;47.446;21.636;2024-02-16T00:04:52;69.10;;;65.93;;
79751;SDS011;69234;47.446;21.636;2024-02-16T00:05:23;68.83;;;66.20;;
79751;SDS011;69234;47.446;21.636;2024-02-16T00:05:54;69.90;;;67.20;;
79751;SDS011;69234;47.446;21.636;2024-02-16T00:06:25;69.67;;;66.90;;
79751;SDS011;69234;47.446;21.636;2024-02-16T00:06:56;68.53;;;66.17;;
79751;SDS011;69234;47.446;21.636;2024-02-16T00:07:27;68.60;;;66.47;;
79751;SDS011;69234;47.446;21.636;2024-02-16T00:07:58;70.43;;;67.73;;
79751;SDS011;69234;47.446;21.636;2024-02-16T00:08:29;69.60;;;66.80;;
79751;SDS011;69234;47.446;21.636;2024-02-16T00:09:00;66.80;;;64.40;;
79751;SDS011;69234;47.446;21.636;2024-02-16T00:09:31;66.87;;;64.13;;
79751;SDS011;69234;47.446;21.636;2024-02-16T00:10:04;70.10;;;67.27;;
79751;SDS011;69234;47.446;21.636;2024-02-16T00:10:36;71.47;;;68.73;;
79751;SDS011;69234;47.446;21.636;2024-02-16T00:11:07;71.50;;;68.87;;
79751;SDS011;69234;47.446;21.636;2024-02-16T00:11:39;70.33;;;67.90;;
79751;SDS011;69234;47.446;21.636;2024-02-16T00:12:10;70.33;;;68.10;;
79751;SDS011;69234;47.446;21.636;2024-02-16T00:12:41;68.80;;;66.60;;
79751;SDS011;69234;47.446;21.636;2024-02-16T00:13:12;68.40;;;65.87;;
79751;SDS011;69234;47.446;21.636;2024-02-16T00:13:44;70.57;;;67.73;;
79751;SDS011;69234;47.446;21.636;2024-02-16T00:14:15;71.87;;;68.73;;
79751;SDS011;69234;47.446;21.636;2024-02-16T00:14:45;71.63;;;69.33;;
79751;SDS011;69234;47.446;21.636;2024-02-16T00:15:16;72.13;;;69.50;;
79751;SDS011;69234;47.446;21.636;2024-02-16T00:15:47;71.97;;;69.33;;
79751;SDS011;69234;47.446;21.636;2024-02-16T00:16:18;71.53;;;68.67;;
79751;SDS011;69234;47.446;21.636;2024-02-16T00:16:49;72.37;;;69.50;;
79751;SDS011;69234;47.446;21.636;2024-02-16T00:17:20;72.40;;;69.93;;
79751;SDS011;69234;47.446;21.636;2024-02-16T00:17:52;71.63;;;69.43;;
79751;SDS011;69234;47.446;21.636;2024-02-16T00:18:23;69.63;;;67.27;;
79751;SDS011;69234;47.446;21.636;2024-02-16T00:18:54;71.23;;;68.93;;
79751;SDS011;69234;47.446;21.636;2024-02-16T00:19:25;73.57;;;71.33;;
79751;SDS011;69234;47.446;21.636;2024-02-16T00:19:57;71.20;;;68.60;;
79751;SDS011;69234;47.446;21.636;2024-02-16T00:20:28;71.57;;;69.17;;
79751;SDS011;69234;47.446;21.636;2024-02-16T00:20:59;70.90;;;68.73;;
79751;SDS011;69234;47.446;21.636;2024-02-16T00:21:31;72.37;;;69.07;;
79751;SDS011;69234;47.446;21.636;2024-02-16T00:22:02;71.67;;;68.60;;
79751;SDS011;69234;47.446;21.636;2024-02-16T00:22:33;72.83;;;69.90;;
79751;SDS011;69234;47.446;21.636;2024-02-16T00:23:04;71.03;;;68.27;;
79751;SDS011;69234;47.446;21.636;2024-02-16T00:23:36;68.50;;;65.93;;
79751;SDS011;69234;47.446;21.636;2024-02-16T00:24:08;69.40;;;67.03;;
79751;SDS011;69234;47.446;21.636;2024-02-16T00:24:39;71.20;;;68.37;;
79751;SDS011;69234;47.446;21.636;2024-02-16T00:25:10;71.20;;;68.47;;
79751;SDS011;69234;47.446;21.636;2024-02-16T00:25:41;71.23;;;68.53;;
79751;SDS011;69234;47.446;21.636;2024-02-16T00:26:12;70.23;;;67.50;;
79751;SDS011;69234;47.446;21.636;2024-02-16T00:26:43;69.30;;;66.97;;
79751;SDS011;69234;47.446;21.636;2024-02-16T00:27:15;69.97;;;67.80;;
79751;SDS011;69234;47.446;21.636;2024-02-16T00:27:46;70.23;;;68.00;;
79751;SDS011;69234;47.446;21.636;2024-02-16T00:28:17;71.50;;;68.80;;
79751;SDS011;69234;47.446;21.636;2024-02-16T00:28:48;70.30;;;67.57;;
79751;SDS011;69234;47.446;21.636;2024-02-16T00:29:19;67.13;;;64.93;;
79751;SDS011;69234;47.446;21.636;2024-02-16T00:29:50;67.70;;;65.70;;
79751;SDS011;69234;47.446;21.636;2024-02-16T00:30:22;67.47;;;65.43;;
79751;SDS011;69234;47.446;21.636;2024-02-16T00:30:53;66.73;;;65.07;;
79751;SDS011;69234;47.446;21.636;2024-02-16T00:31:23;66.77;;;64.80;;
79751;SDS011;69234;47.446;21.636;2024-02-16T00:31:54;67.47;;;65.20;;
79751;SDS011;69234;47.446;21.636;2024-02-16T00:32:25;66.47;;;64.10;;
79751;SDS011;69234;47.446;21.636;2024-02-16T00:33:00;67.87;;;65.50;;
79751;SDS011;69234;47.446;21.636;2024-02-16T00:33:31;67.20;;;65.20;;
79751;SDS011;69234;47.446;21.636;2024-02-16T00:34:02;67.50;;;65.23;;
79751;SDS011;69234;47.446;21.636;2024-02-16T00:34:33;66.50;;;64.27;;
79751;SDS011;69234;47.446;21.636;2024-02-16T00:35:06;66.80;;;64.73;;
79751;SDS011;69234;47.446;21.636;2024-02-16T00:35:37;67.90;;;65.53;;
79751;SDS011;69234;47.446;21.636;2024-02-16T00:36:08;70.00;;;67.23;;
79751;SDS011;69234;47.446;21.636;2024-02-16T00:36:40;67.40;;;65.47;;
79751;SDS011;69234;47.446;21.636;2024-02-16T00:37:11;65.47;;;63.73;;
79751;SDS011;69234;47.446;21.636;2024-02-16T00:37:42;66.20;;;64.23;;
79751;SDS011;69234;47.446;21.636;2024-02-16T00:38:13;65.63;;;64.03;;
79751;SDS011;69234;47.446;21.636;2024-02-16T00:38:44;68.07;;;66.23;;
79751;SDS011;69234;47.446;21.636;2024-02-16T00:39:14;67.17;;;64.77;;
79751;SDS011;69234;47.446;21.636;2024-02-16T00:39:45;66.97;;;64.27;;
79751;SDS011;69234;47.446;21.636;2024-02-16T00:40:16;65.93;;;63.60;;
79751;SDS011;69234;47.446;21.636;2024-02-16T00:40:47;65.17;;;63.07;;
79751;SDS011;69234;47.446;21.636;2024-02-16T00:41:19;64.37;;;62.60;;
79751;SDS011;69234;47.446;21.636;2024-02-16T00:41:51;64.13;;;62.43;;
79751;SDS011;69234;47.446;21.636;2024-02-16T00:42:22;64.10;;;62.50;;
79751;SDS011;69234;47.446;21.636;2024-02-16T00:42:54;65.73;;;64.03;;
79751;SDS011;69234;47.446;21.636;2024-02-16T00:43:25;67.87;;;65.37;;
79751;SDS011;69234;47.446;21.636;2024-02-16T00:43:56;66.87;;;64.33;;
79751;SDS011;69234;47.446;21.636;2024-02-16T00:44:27;67.43;;;65.27;;
79751;SDS011;69234;47.446;21.636;2024-02-16T00:44:58;66.90;;;65.13;;
79751;SDS011;69234;47.446;21.636;2024-02-16T00:45:33;67.67;;;65.20;;
79751;SDS011;69234;47.446;21.636;2024-02-16T00:46:04;65.57;;;63.23;;
79751;SDS011;69234;47.446;21.636;2024-02-16T00:46:35;65.40;;;63.50;;
79751;SDS011;69234;47.446;21.636;2024-02-16T00:47:06;67.23;;;65.07;;
79751;SDS011;69234;47.446;21.636;2024-02-16T00:47:39;65.93;;;64.23;;
79751;SDS011;69234;47.446;21.636;2024-02-16T00:48:10;64.90;;;62.73;;
79751;SDS011;69234;47.446;21.636;2024-02-16T00:48:41;66.13;;;63.70;;
79751;SDS011;69234;47.446;21.636;2024-02-16T00:49:12;65.87;;;63.37;;
79751;SDS011;69234;47.446;21.636;2024-02-16T00:49:43;66.07;;;63.67;;
79751;SDS011;69234;47.446;21.636;2024-02-16T00:50:14;63.77;;;61.63;;
79751;SDS011;69234;47.446;21.636;2024-02-16T00:50:45;65.80;;;63.57;;
79751;SDS011;69234;47.446;21.636;2024-02-16T00:51:16;65.53;;;63.37;;
79751;SDS011;69234;47.446;21.636;2024-02-16T00:51:47;65.43;;;63.20;;
79751;SDS011;69234;47.446;21.636;2024-02-16T00:52:18;65.33;;;63.07;;
79751;SDS011;69234;47.446;21.636;2024-02-16T00:52:49;65.37;;;63.17;;
79751;SDS011;69234;47.446;21.636;2024-02-16T00:53:20;63.33;;;61.13;;
79751;SDS011;69234;47.446;21.636;2024-02-16T00:53:51;62.60;;;60.83;;
79751;SDS011;69234;47.446;21.636;2024-02-16T00:54:23;62.73;;;61.27;;
79751;SDS011;69234;47.446;21.636;2024-02-16T00:54:54;62.73;;;61.03;;
79751;SDS011;69234;47.446;21.636;2024-02-16T00:55:24;62.97;;;61.33;;
79751;SDS011;69234;47.446;21.636;2024-02-16T00:55:55;63.80;;;62.13;;
79751;SDS011;69234;47.446;21.636;2024-02-16T00:56:26;62.70;;;61.07;;
79751;SDS011;69234;47.446;21.636;2024-02-16T00:56:57;62.00;;;60.57;;
79751;SDS011;69234;47.446;21.636;2024-02-16T00:57:32;60.87;;;59.50;;
79751;SDS011;69234;47.446;21.636;2024-02-16T00:58:04;63.17;;;61.03;;
79751;SDS011;69234;47.446;21.636;2024-02-16T00:58:35;63.43;;;61.17;;
79751;SDS011;69234;47.446;21.636;2024-02-16T00:59:06;62.47;;;60.43;;
79751;SDS011;69234;47.446;21.636;2024-02-16T00:59:40;63.13;;;61.50;;
79751;SDS011;69234;47.446;21.636;2024-02-16T01:00:11;61.83;;;59.70;;
79751;SDS011;69234;47.446;21.636;2024-02-16T01:00:43;62.37;;;60.37;;
79751;SDS011;69234;47.446;21.636;2024-02-16T01:01:14;62.83;;;60.60;;
79751;SDS011;69234;47.446;21.636;2024-02-16T01:01:45;61.93;;;59.73;;
79751;SDS011;69234;47.446;21.636;2024-02-16T01:02:16;62.80;;;61.00;;
79751;SDS011;69234;47.446;21.636;2024-02-16T01:02:47;62.97;;;61.03;;
79751;SDS011;69234;47.446;21.636;2024-02-16T01:03:18;64.67;;;62.77;;
79751;SDS011;69234;47.446;21.636;2024-02-16T01:03:48;63.83;;;62.03;;
79751;SDS011;69234;47.446;21.636;2024-02-16T01:04:19;63.77;;;61.97;;
79751;SDS011;69234;47.446;21.636;2024-02-16T01:04:50;63.60;;;61.57;;
79751;SDS011;69234;47.446;21.636;2024-02-16T01:05:22;62.40;;;60.53;;
79751;SDS011;69234;47.446;21.636;2024-02-16T01:05:53;62.37;;;60.73;;
79751;SDS011;69234;47.446;21.636;2024-02-16T01:06:24;66.20;;;64.27;;
79751;SDS011;69234;47.446;21.636;2024-02-16T01:06:55;65.80;;;63.47;;
79751;SDS011;69234;47.446;21.636;2024-02-16T01:07:26;62.40;;;60.43;;
79751;SDS011;69234;47.446;21.636;2024-02-16T01:07:57;63.97;;;62.03;;
79751;SDS011;69234;47.446;21.636;2024-02-16T01:08:28;64.77;;;62.60;;
79751;SDS011;69234;47.446;21.636;2024-02-16T01:08:59;62.00;;;60.00;;
79751;SDS011;69234;47.446;21.636;2024-02-16T01:09:29;62.03;;;60.57;;
79751;SDS011;69234;47.446;21.636;2024-02-16T01:10:02;63.00;;;61.17;;
79751;SDS011;69234;47.446;21.636;2024-02-16T01:10:35;64.23;;;61.90;;
79751;SDS011;69234;47.446;21.636;2024-02-16T01:11:06;62.83;;;61.07;;
79751;SDS011;69234;47.446;21.636;2024-02-16T01:11:37;63.77;;;61.83;;
79751;SDS011;69234;47.446;21.636;2024-02-16T01:12:10;63.17;;;61.30;;
79751;SDS011;69234;47.446;21.636;2024-02-16T01:12:41;62.70;;;61.07;;
79751;SDS011;69234;47.446;21.636;2024-02-16T01:13:12;64.30;;;62.73;;
79751;SDS011;69234;47.446;21.636;2024-02-16T01:13:43;65.20;;;63.43;;
79751;SDS011;69234;47.446;21.636;2024-02-16T01:14:15;62.50;;;60.40;;
79751;SDS011;69234;47.446;21.636;2024-02-16T01:14:46;61.67;;;59.33;;
79751;SDS011;69234;47.446;21.636;2024-02-16T01:15:17;62.67;;;60.60;;
79751;SDS011;69234;47.446;21.636;2024-02-16T01:15:48;62.03;;;60.33;;
79751;SDS011;69234;47.446;21.636;2024-02-16T01:16:19;61.30;;;59.77;;
79751;SDS011;69234;47.446;21.636;2024-02-16T01:16:50;63.40;;;61.70;;
79751;SDS011;69234;47.446;21.636;2024-02-16T01:17:21;61.13;;;59.40;;
79751;SDS011;69234;47.446;21.636;2024-02-16T01:17:52;63.63;;;61.33;;
79751;SDS011;69234;47.446;21.636;2024-02-16T01:18:22;64.67;;;62.30;;
79751;SDS011;69234;47.446;21.636;2024-02-16T01:18:53;62.87;;;61.00;;
79751;SDS011;69234;47.446;21.636;2024-02-16T01:19:24;63.50;;;61.47;;
79751;SDS011;69234;47.446;21.636;2024-02-16T01:19:55;63.97;;;61.90;;
79751;SDS011;69234;47.446;21.636;2024-02-16T01:20:27;64.83;;;62.57;;
79751;SDS011;69234;47.446;21.636;2024-02-16T01:21:01;64.57;;;62.27;;
79751;SDS011;69234;47.446;21.636;2024-02-16T01:21:33;62.60;;;60.40;;
79751;SDS011;69234;47.446;21.636;2024-02-16T01:22:04;63.50;;;61.17;;
79751;SDS011;69234;47.446;21.636;2024-02-16T01:22:35;62.73;;;60.83;;
79751;SDS011;69234;47.446;21.636;2024-02-16T01:23:06;63.50;;;61.67;;
79751;SDS011;69234;47.446;21.636;2024-02-16T01:23:37;61.87;;;59.97;;
79751;SDS011;69234;47.446;21.636;2024-02-16T01:24:08;62.93;;;60.83;;
79751;SDS011;69234;47.446;21.636;2024-02-16T01:24:39;63.23;;;61.17;;
79751;SDS011;69234;47.446;21.636;2024-02-16T01:25:10;62.90;;;60.83;;
79751;SDS011;69234;47.446;21.636;2024-02-16T01:25:40;62.73;;;60.37;;
79751;SDS011;69234;47.446;21.636;2024-02-16T01:26:12;62.90;;;60.37;;
79751;SDS011;69234;47.446;21.636;2024-02-16T01:26:44;62.67;;;60.43;;
79751;SDS011;69234;47.446;21.636;2024-02-16T01:27:15;62.57;;;60.63;;
79751;SDS011;69234;47.446;21.636;2024-02-16T01:27:46;62.87;;;61.07;;
79751;SDS011;69234;47.446;21.636;2024-02-16T01:28:17;63.20;;;61.33;;
79751;SDS011;69234;47.446;21.636;2024-02-16T01:28:48;63.23;;;61.20;;
79751;SDS011;69234;47.446;21.636;2024-02-16T01:29:19;64.30;;;62.20;;
79751;SDS011;69234;47.446;21.636;2024-02-16T01:29:50;63.50;;;61.57;;
79751;SDS011;69234;47.446;21.636;2024-02-16T01:30:21;62.47;;;60.57;;
79751;SDS011;69234;47.446;21.636;2024-02-16T01:30:52;62.50;;;60.53;;
79751;SDS011;69234;47.446;21.636;2024-02-16T01:31:23;62.27;;;59.97;;
79751;SDS011;69234;47.446;21.636;2024-02-16T01:31:54;61.13;;;58.87;;
79751;SDS011;69234;47.446;21.636;2024-02-16T01:32:25;62.63;;;60.50;;
79751;SDS011;69234;47.446;21.636;2024-02-16T01:32:55;61.60;;;59.93;;
79751;SDS011;69234;47.446;21.636;2024-02-16T01:33:26;62.73;;;60.53;;
79751;SDS011;69234;47.446;21.636;2024-02-16T01:33:59;64.67;;;62.33;;
79751;SDS011;69234;47.446;21.636;2024-02-16T01:34:30;63.00;;;60.70;;
79751;SDS011;69234;47.446;21.636;2024-02-16T01:35:01;63.00;;;60.83;;
79751;SDS011;69234;47.446;21.636;2024-02-16T01:35:33;62.23;;;60.13;;
79751;SDS011;69234;47.446;21.636;2024-02-16T01:36:04;60.57;;;58.43;;
79751;SDS011;69234;47.446;21.636;2024-02-16T01:36:35;60.90;;;59.10;;
79751;SDS011;69234;47.446;21.636;2024-02-16T01:37:07;62.80;;;61.10;;
79751;SDS011;69234;47.446;21.636;2024-02-16T01:37:37;63.70;;;61.60;;
79751;SDS011;69234;47.446;21.636;2024-02-16T01:38:08;63.17;;;61.23;;
79751;SDS011;69234;47.446;21.636;2024-02-16T01:38:39;61.67;;;59.83;;
79751;SDS011;69234;47.446;21.636;2024-02-16T01:39:10;62.47;;;60.67;;
79751;SDS011;69234;47.446;21.636;2024-02-16T01:39:42;62.50;;;60.90;;
79751;SDS011;69234;47.446;21.636;2024-02-16T01:40:14;61.97;;;59.97;;
79751;SDS011;69234;47.446;21.636;2024-02-16T01:40:47;62.57;;;60.80;;
79751;SDS011;69234;47.446;21.636;2024-02-16T01:41:18;61.80;;;59.87;;
79751;SDS011;69234;47.446;21.636;2024-02-16T01:41:49;62.10;;;59.87;;
79751;SDS011;69234;47.446;21.636;2024-02-16T01:42:20;63.03;;;60.60;;
79751;SDS011;69234;47.446;21.636;2024-02-16T01:42:51;60.53;;;58.73;;
79751;SDS011;69234;47.446;21.636;2024-02-16T01:43:25;60.07;;;58.00;;
79751;SDS011;69234;47.446;21.636;2024-02-16T01:43:57;62.33;;;60.07;;
79751;SDS011;69234;47.446;21.636;2024-02-16T01:44:29;61.27;;;59.27;;
79751;SDS011;69234;47.446;21.636;2024-02-16T01:45:00;60.83;;;59.13;;
79751;SDS011;69234;47.446;21.636;2024-02-16T01:45:30;61.37;;;59.20;;
79751;SDS011;69234;47.446;21.636;2024-02-16T01:46:01;58.87;;;57.33;;
79751;SDS011;69234;47.446;21.636;2024-02-16T01:46:33;57.60;;;55.83;;
79751;SDS011;69234;47.446;21.636;2024-02-16T01:47:05;60.90;;;58.77;;
79751;SDS011;69234;47.446;21.636;2024-02-16T01:47:36;62.23;;;60.37;;
79751;SDS011;69234;47.446;21.636;2024-02-16T01:48:08;60.53;;;58.93;;
79751;SDS011;69234;47.446;21.636;2024-02-16T01:48:39;58.87;;;57.10;;
79751;SDS011;69234;47.446;21.636;2024-02-16T01:49:10;58.27;;;56.43;;
79751;SDS011;69234;47.446;21.636;2024-02-16T01:49:44;60.50;;;58.57;;
79751;SDS011;69234;47.446;21.636;2024-02-16T01:50:15;61.63;;;59.63;;
79751;SDS011;69234;47.446;21.636;2024-02-16T01:50:48;60.73;;;58.73;;
79751;SDS011;69234;47.446;21.636;2024-02-16T01:51:20;61.47;;;59.13;;
79751;SDS011;69234;47.446;21.636;2024-02-16T01:51:54;62.37;;;60.17;;
79751;SDS011;69234;47.446;21.636;2024-02-16T01:52:26;62.57;;;60.37;;
79751;SDS011;69234;47.446;21.636;2024-02-16T01:52:57;61.03;;;59.20;;
79751;SDS011;69234;47.446;21.636;2024-02-16T01:53:28;61.33;;;59.53;;
79751;SDS011;69234;47.446;21.636;2024-02-16T01:53:59;59.77;;;58.07;;
79751;SDS011;69234;47.446;21.636;2024-02-16T01:54:31;60.27;;;58.40;;
79751;SDS011;69234;47.446;21.636;2024-02-16T01:55:03;60.00;;;57.97;;
79751;SDS011;69234;47.446;21.636;2024-02-16T01:55:35;58.13;;;56.47;;
79751;SDS011;69234;47.446;21.636;2024-02-16T01:56:06;57.57;;;55.87;;
79751;SDS011;69234;47.446;21.636;2024-02-16T01:56:37;59.10;;;57.27;;
79751;SDS011;69234;47.446;21.636;2024-02-16T01:57:09;58.77;;;56.97;;
79751;SDS011;69234;47.446;21.636;2024-02-16T01:57:44;59.93;;;57.80;;
79751;SDS011;69234;47.446;21.636;2024-02-16T01:58:17;58.10;;;56.17;;
79751;SDS011;69234;47.446;21.636;2024-02-16T01:58:48;57.53;;;56.00;;
79751;SDS011;69234;47.446;21.636;2024-02-16T01:59:21;57.77;;;56.43;;
79751;SDS011;69234;47.446;21.636;2024-02-16T01:59:53;59.23;;;57.70;;
79751;SDS011;69234;47.446;21.636;2024-02-16T02:00:25;61.00;;;59.10;;
79751;SDS011;69234;47.446;21.636;2024-02-16T02:00:56;60.53;;;58.70;;
79751;SDS011;69234;47.446;21.636;2024-02-16T02:01:26;60.97;;;59.37;;
79751;SDS011;69234;47.446;21.636;2024-02-16T02:01:57;60.10;;;58.30;;
79751;SDS011;69234;47.446;21.636;2024-02-16T02:02:28;61.43;;;59.47;;
79751;SDS011;69234;47.446;21.636;2024-02-16T02:02:59;62.00;;;60.10;;
79751;SDS011;69234;47.446;21.636;2024-02-16T02:03:30;60.70;;;58.80;;
79751;SDS011;69234;47.446;21.636;2024-02-16T02:04:01;61.30;;;59.50;;
79751;SDS011;69234;47.446;21.636;2024-02-16T02:04:33;59.80;;;57.93;;
79751;SDS011;69234;47.446;21.636;2024-02-16T02:05:04;60.20;;;58.33;;
79751;SDS011;69234;47.446;21.636;2024-02-16T02:05:43;61.47;;;59.43;;
79751;SDS011;69234;47.446;21.636;2024-02-16T02:06:16;58.57;;;57.03;;
79751;SDS011;69234;47.446;21.636;2024-02-16T02:06:48;59.27;;;57.47;;
79751;SDS011;69234;47.446;21.636;2024-02-16T02:07:19;58.67;;;57.07;;
79751;SDS011;69234;47.446;21.636;2024-02-16T02:07:59;60.30;;;58.40;;
79751;SDS011;69234;47.446;21.636;2024-02-16T02:08:40;58.43;;;56.73;;
79751;SDS011;69234;47.446;21.636;2024-02-16T02:09:11;58.80;;;56.90;;
79751;SDS011;69234;47.446;21.636;2024-02-16T02:09:42;59.00;;;56.97;;
79751;SDS011;69234;47.446;21.636;2024-02-16T02:10:13;60.13;;;58.13;;
79751;SDS011;69234;47.446;21.636;2024-02-16T02:10:44;59.03;;;57.40;;
79751;SDS011;69234;47.446;21.636;2024-02-16T02:11:15;60.90;;;59.00;;
79751;SDS011;69234;47.446;21.636;2024-02-16T02:11:46;59.33;;;57.37;;
79751;SDS011;69234;47.446;21.636;2024-02-16T02:12:17;59.37;;;57.43;;
79751;SDS011;69234;47.446;21.636;2024-02-16T02:12:48;60.93;;;58.97;;
79751;SDS011;69234;47.446;21.636;2024-02-16T02:13:19;59.73;;;57.80;;
79751;SDS011;69234;47.446;21.636;2024-02-16T02:13:52;59.63;;;57.93;;
79751;SDS011;69234;47.446;21.636;2024-02-16T02:14:23;60.40;;;58.93;;
79751;SDS011;69234;47.446;21.636;2024-02-16T02:14:56;59.77;;;58.57;;
79751;SDS011;69234;47.446;21.636;2024-02-16T02:15:27;60.03;;;58.73;;
79751;SDS011;69234;47.446;21.636;2024-02-16T02:15:58;60.03;;;58.50;;
79751;SDS011;69234;47.446;21.636;2024-02-16T02:16:30;62.50;;;60.40;;
79751;SDS011;69234;47.446;21.636;2024-02-16T02:17:01;62.53;;;60.57;;
79751;SDS011;69234;47.446;21.636;2024-02-16T02:17:33;59.40;;;57.73;;
79751;SDS011;69234;47.446;21.636;2024-02-16T02:18:04;62.13;;;60.00;;
79751;SDS011;69234;47.446;21.636;2024-02-16T02:18:35;62.50;;;60.13;;
79751;SDS011;69234;47.446;21.636;2024-02-16T02:19:06;60.73;;;58.77;;
79751;SDS011;69234;47.446;21.636;2024-02-16T02:19:37;61.70;;;59.70;;
79751;SDS011;69234;47.446;21.636;2024-02-16T02:20:08;60.77;;;58.57;;
79751;SDS011;69234;47.446;21.636;2024-02-16T02:20:40;59.90;;;57.73;;
79751;SDS011;69234;47.446;21.636;2024-02-16T02:21:12;61.20;;;58.80;;
79751;SDS011;69234;47.446;21.636;2024-02-16T02:21:44;61.10;;;58.47;;
79751;SDS011;69234;47.446;21.636;2024-02-16T02:22:18;62.00;;;59.53;;
79751;SDS011;69234;47.446;21.636;2024-02-16T02:22:50;62.10;;;59.90;;
79751;SDS011;69234;47.446;21.636;2024-02-16T02:23:21;61.47;;;59.13;;
79751;SDS011;69234;47.446;21.636;2024-02-16T02:23:52;60.73;;;58.77;;
79751;SDS011;69234;47.446;21.636;2024-02-16T02:24:23;60.77;;;58.77;;
79751;SDS011;69234;47.446;21.636;2024-02-16T02:24:54;61.43;;;59.33;;
79751;SDS011;69234;47.446;21.636;2024-02-16T02:25:28;60.60;;;58.70;;
79751;SDS011;69234;47.446;21.636;2024-02-16T02:26:00;62.27;;;60.17;;
79751;SDS011;69234;47.446;21.636;2024-02-16T02:26:31;63.07;;;60.63;;
79751;SDS011;69234;47.446;21.636;2024-02-16T02:27:02;61.27;;;59.00;;
79751;SDS011;69234;47.446;21.636;2024-02-16T02:27:33;61.00;;;58.83;;
79751;SDS011;69234;47.446;21.636;2024-02-16T02:28:04;63.00;;;60.67;;
79751;SDS011;69234;47.446;21.636;2024-02-16T02:28:36;63.00;;;60.57;;
79751;SDS011;69234;47.446;21.636;2024-02-16T02:29:07;62.47;;;60.63;;
79751;SDS011;69234;47.446;21.636;2024-02-16T02:29:38;61.50;;;59.93;;
79751;SDS011;69234;47.446;21.636;2024-02-16T02:30:10;59.27;;;57.17;;
79751;SDS011;69234;47.446;21.636;2024-02-16T02:30:43;59.23;;;57.20;;
79751;SDS011;69234;47.446;21.636;2024-02-16T02:31:17;61.17;;;59.13;;
79751;SDS011;69234;47.446;21.636;2024-02-16T02:31:48;60.87;;;59.27;;
79751;SDS011;69234;47.446;21.636;2024-02-16T02:32:19;59.33;;;57.93;;
79751;SDS011;69234;47.446;21.636;2024-02-16T02:32:50;58.53;;;57.20;;
79751;SDS011;69234;47.446;21.636;2024-02-16T02:33:21;59.63;;;58.10;;
79751;SDS011;69234;47.446;21.636;2024-02-16T02:33:52;62.37;;;60.03;;
79751;SDS011;69234;47.446;21.636;2024-02-16T02:34:23;62.17;;;60.30;;
79751;SDS011;69234;47.446;21.636;2024-02-16T02:34:54;61.50;;;59.60;;
79751;SDS011;69234;47.446;21.636;2024-02-16T02:35:25;60.37;;;58.17;;
79751;SDS011;69234;47.446;21.636;2024-02-16T02:35:56;60.97;;;58.77;;
79751;SDS011;69234;47.446;21.636;2024-02-16T02:36:27;62.00;;;59.80;;
79751;SDS011;69234;47.446;21.636;2024-02-16T02:36:58;61.93;;;59.70;;
79751;SDS011;69234;47.446;21.636;2024-02-16T02:37:29;60.07;;;58.07;;
79751;SDS011;69234;47.446;21.636;2024-02-16T02:38:00;61.07;;;59.30;;
79751;SDS011;69234;47.446;21.636;2024-02-16T02:38:31;61.27;;;59.33;;
79751;SDS011;69234;47.446;21.636;2024-02-16T02:39:03;62.93;;;60.70;;
79751;SDS011;69234;47.446;21.636;2024-02-16T02:39:34;63.27;;;60.90;;
79751;SDS011;69234;47.446;21.636;2024-02-16T02:40:05;61.37;;;59.17;;
79751;SDS011;69234;47.446;21.636;2024-02-16T02:40:38;61.47;;;59.37;;
79751;SDS011;69234;47.446;21.636;2024-02-16T02:41:09;61.90;;;59.90;;
79751;SDS011;69234;47.446;21.636;2024-02-16T02:41:40;60.50;;;58.37;;
79751;SDS011;69234;47.446;21.636;2024-02-16T02:42:11;60.63;;;58.63;;
79751;SDS011;69234;47.446;21.636;2024-02-16T02:42:42;61.43;;;59.10;;
79751;SDS011;69234;47.446;21.636;2024-02-16T02:43:14;61.73;;;58.93;;
79751;SDS011;69234;47.446;21.636;2024-02-16T02:43:45;61.43;;;58.97;;
79751;SDS011;69234;47.446;21.636;2024-02-16T02:44:18;62.23;;;60.27;;
79751;SDS011;69234;47.446;21.636;2024-02-16T02:44:52;62.17;;;60.30;;
79751;SDS011;69234;47.446;21.636;2024-02-16T02:45:23;60.97;;;59.07;;
79751;SDS011;69234;47.446;21.636;2024-02-16T02:45:54;60.33;;;58.10;;
79751;SDS011;69234;47.446;21.636;2024-02-16T02:46:25;62.07;;;59.27;;
79751;SDS011;69234;47.446;21.636;2024-02-16T02:46:57;60.30;;;58.07;;
79751;SDS011;69234;47.446;21.636;2024-02-16T02:47:28;59.90;;;57.40;;
79751;SDS011;69234;47.446;21.636;2024-02-16T02:47:59;60.07;;;57.73;;
79751;SDS011;69234;47.446;21.636;2024-02-16T02:48:30;60.87;;;58.77;;
79751;SDS011;69234;47.446;21.636;2024-02-16T02:49:01;61.00;;;59.03;;
79751;SDS011;69234;47.446;21.636;2024-02-16T02:49:33;61.53;;;59.20;;
79751;SDS011;69234;47.446;21.636;2024-02-16T02:50:05;59.87;;;57.80;;
79751;SDS011;69234;47.446;21.636;2024-02-16T02:50:36;62.13;;;59.80;;
79751;SDS011;69234;47.446;21.636;2024-02-16T02:51:07;61.93;;;59.43;;
79751;SDS011;69234;47.446;21.636;2024-02-16T02:51:39;60.37;;;57.73;;
79751;SDS011;69234;47.446;21.636;2024-02-16T02:52:10;59.80;;;57.70;;
79751;SDS011;69234;47.446;21.636;2024-02-16T02:52:41;61.70;;;59.27;;
79751;SDS011;69234;47.446;21.636;2024-02-16T02:53:12;59.00;;;57.00;;
79751;SDS011;69234;47.446;21.636;2024-02-16T02:53:43;59.07;;;57.23;;
79751;SDS011;69234;47.446;21.636;2024-02-16T02:54:14;59.90;;;58.17;;
79751;SDS011;69234;47.446;21.636;2024-02-16T02:54:45;60.57;;;58.73;;
79751;SDS011;69234;47.446;21.636;2024-02-16T02:55:16;63.13;;;60.93;;
79751;SDS011;69234;47.446;21.636;2024-02-16T02:55:47;62.00;;;59.77;;
79751;SDS011;69234;47.446;21.636;2024-02-16T02:56:18;62.33;;;59.97;;
79751;SDS011;69234;47.446;21.636;2024-02-16T02:56:48;62.20;;;59.97;;
79751;SDS011;69234;47.446;21.636;2024-02-16T02:57:19;61.73;;;59.60;;
79751;SDS011;69234;47.446;21.636;2024-02-16T02:57:50;60.30;;;58.53;;
79751;SDS011;69234;47.446;21.636;2024-02-16T02:58:21;60.57;;;58.77;;
79751;SDS011;69234;47.446;21.636;2024-02-16T02:58:52;60.17;;;58.57;;
79751;SDS011;69234;47.446;21.636;2024-02-16T02:59:23;60.57;;;58.53;;
79751;SDS011;69234;47.446;21.636;2024-02-16T03:00:01;58.33;;;56.63;;
79751;SDS011;69234;47.446;21.636;2024-02-16T03:00:36;59.83;;;57.73;;
79751;SDS011;69234;47.446;21.636;2024-02-16T03:01:07;60.43;;;58.30;;